createdAt,value
2018-10-18T00:00:15.977Z,3.375
2018-10-18T00:03:15.453Z,2.438
2018-10-18T00:06:15.780Z,3.662
2018-10-18T00:09:15.217Z,2.337
2018-10-18T00:12:15.611Z,3.988
2018-10-18T00:15:15.028Z,2.775
2018-10-18T00:18:15.196Z,4.537
2018-10-18T00:21:15.729Z,2.850
2018-10-18T00:24:15.520Z,3.662
2018-10-18T00:27:15.904Z,4.463
2018-10-18T00:30:15.408Z,2.600
2018-10-18T00:33:15.046Z,5.387
2018-10-18T00:36:15.739Z,5.325
2018-10-18T00:39:15.200Z,2.288
2018-10-18T00:42:15.560Z,5.775
2018-10-18T00:45:15.083Z,3.188
2018-10-18T00:48:15.874Z,4.425
2018-10-18T00:51:15.373Z,3.100
2018-10-18T00:54:15.801Z,5.050
2018-10-18T00:57:15.158Z,3.100
2018-10-18T01:00:15.658Z,4.013
2018-10-18T01:03:15.372Z,3.275
2018-10-18T01:06:15.821Z,3.462
2018-10-18T01:09:15.221Z,1.800
2018-10-18T01:12:15.576Z,1.575
2018-10-18T01:15:15.868Z,1.500
2018-10-18T01:18:15.816Z,3.275
2018-10-18T01:21:15.285Z,3.900
2018-10-18T01:24:15.861Z,2.438
2018-10-18T01:27:15.294Z,2.925
2018-10-18T01:30:15.857Z,2.625
2018-10-18T01:33:15.440Z,3.513
2018-10-18T01:36:16.040Z,3.087
2018-10-18T01:39:15.425Z,2.188
2018-10-18T01:42:15.967Z,3.763
2018-10-18T01:45:15.269Z,3.675
2018-10-18T01:48:15.395Z,1.825
2018-10-18T01:51:15.716Z,2.312
2018-10-18T01:54:16.157Z,3.475
2018-10-18T01:57:15.730Z,3.737
2018-10-18T02:00:15.292Z,3.025
2018-10-18T02:03:15.663Z,2.300
2018-10-18T02:06:15.332Z,2.350
2018-10-18T02:09:15.621Z,3.788
2018-10-18T02:12:15.133Z,2.225
2018-10-18T02:15:15.383Z,3.937
2018-10-18T02:18:15.934Z,2.638
2018-10-18T02:21:15.527Z,3.212
2018-10-18T02:24:15.850Z,2.725
2018-10-18T02:27:15.114Z,2.825
2018-10-18T02:30:15.497Z,4.112
2018-10-18T02:33:15.104Z,2.900
2018-10-18T02:36:15.593Z,2.388
2018-10-18T02:39:14.925Z,4.450
2018-10-18T02:42:15.329Z,2.100
2018-10-18T02:45:15.764Z,2.963
2018-10-18T02:48:15.200Z,4.925
2018-10-18T02:51:15.705Z,5.863
2018-10-18T02:54:15.098Z,3.375
2018-10-18T02:57:15.123Z,3.800
2018-10-18T03:00:15.634Z,5.088
2018-10-18T03:03:14.957Z,3.325
2018-10-18T03:06:15.305Z,2.300
2018-10-18T03:09:16.072Z,1.750
2018-10-18T03:12:15.563Z,1.800
2018-10-18T03:15:16.025Z,2.350
2018-10-18T03:18:15.367Z,2.775
2018-10-18T03:21:15.777Z,2.062
2018-10-18T03:24:15.237Z,2.950
2018-10-18T03:27:15.835Z,4.487
2018-10-18T03:30:15.483Z,4.162
2018-10-18T03:33:15.031Z,3.075
2018-10-18T03:36:15.666Z,4.938
2018-10-18T03:39:15.456Z,4.938
2018-10-18T03:42:16.092Z,5.137
2018-10-18T03:45:15.711Z,4.263
2018-10-18T03:48:15.751Z,4.588
2018-10-18T03:51:15.099Z,5.425
2018-10-18T03:54:15.618Z,1.437
2018-10-18T03:57:16.067Z,4.388
2018-10-18T04:00:15.443Z,3.712
2018-10-18T04:03:15.962Z,2.900
2018-10-18T04:06:15.431Z,5.188
2018-10-18T04:09:15.087Z,3.238
2018-10-18T04:12:15.525Z,3.375
2018-10-18T04:15:15.083Z,5.612
2018-10-18T04:18:15.468Z,6.225
2018-10-18T04:21:15.343Z,5.238
2018-10-18T04:24:15.781Z,5.100
2018-10-18T04:27:15.552Z,8.562
2018-10-18T04:30:15.993Z,8.175
2018-10-18T04:33:15.573Z,6.025
2018-10-18T04:36:15.978Z,5.650
2018-10-18T04:39:15.527Z,8.375
2018-10-18T04:42:16.021Z,8.775
2018-10-18T04:45:15.501Z,4.037
2018-10-18T04:48:16.123Z,8.950
2018-10-18T04:51:15.622Z,4.475
2018-10-18T04:54:15.244Z,5.237
2018-10-18T04:57:15.775Z,4.412
2018-10-18T05:00:15.786Z,6.338
2018-10-18T05:03:15.206Z,4.500
2018-10-18T05:06:15.700Z,3.875
2018-10-18T05:09:15.315Z,4.112
2018-10-18T05:12:15.820Z,3.100
2018-10-18T05:15:15.677Z,4.338
2018-10-18T05:18:15.389Z,4.150
2018-10-18T05:21:15.864Z,6.612
2018-10-18T05:24:15.674Z,5.037
2018-10-18T05:27:15.392Z,4.662
2018-10-18T05:30:15.692Z,14.863
2018-10-18T05:33:15.276Z,6.575
2018-10-18T05:36:15.080Z,8.438
2018-10-18T05:39:15.590Z,7.037
2018-10-18T05:42:16.018Z,5.562
2018-10-18T05:45:15.943Z,10.300
2018-10-18T05:48:15.396Z,8.512
2018-10-18T05:51:15.038Z,7.450
2018-10-18T05:54:15.654Z,6.850
2018-10-18T05:57:15.905Z,5.863
2018-10-18T06:00:15.471Z,4.312
2018-10-18T06:03:15.296Z,7.613
2018-10-18T06:06:15.896Z,5.963
2018-10-18T06:09:15.657Z,8.375
2018-10-18T06:12:15.775Z,5.188
2018-10-18T06:15:15.269Z,5.225
2018-10-18T06:18:15.908Z,7.150
2018-10-18T06:21:15.460Z,4.125
2018-10-18T06:24:15.988Z,3.862
2018-10-18T06:27:15.514Z,7.113
2018-10-18T06:30:15.027Z,7.062
2018-10-18T06:33:15.610Z,10.887
2018-10-18T06:36:15.982Z,7.562
2018-10-18T06:39:15.522Z,7.812
2018-10-18T06:42:15.104Z,9.363
2018-10-18T06:45:15.588Z,10.300
2018-10-18T06:48:15.090Z,7.875
2018-10-18T06:51:15.675Z,7.638
2018-10-18T06:54:15.343Z,10.512
2018-10-18T06:57:15.199Z,10.188
2018-10-18T07:00:15.859Z,7.188
2018-10-18T07:03:16.157Z,6.950
2018-10-18T07:06:15.702Z,5.963
2018-10-18T07:09:15.332Z,9.613
2018-10-18T07:12:15.950Z,11.325
2018-10-18T07:15:15.492Z,11.275
2018-10-18T07:18:15.133Z,10.287
2018-10-18T07:21:15.696Z,6.025
2018-10-18T07:24:15.799Z,9.725
2018-10-18T07:27:15.317Z,7.900
2018-10-18T07:30:15.623Z,8.387
2018-10-18T07:33:15.138Z,14.000
2018-10-18T07:36:15.549Z,7.850
2018-10-18T07:39:15.307Z,9.538
2018-10-18T07:42:15.859Z,8.825
2018-10-18T07:45:15.428Z,9.512
2018-10-18T07:48:15.057Z,7.263
2018-10-18T07:51:15.740Z,11.600
2018-10-18T07:54:15.474Z,11.188
2018-10-18T07:57:16.159Z,13.175
2018-10-18T08:00:15.740Z,9.025
2018-10-18T08:03:15.970Z,9.238
2018-10-18T08:06:15.327Z,8.362
2018-10-18T08:09:15.652Z,7.838
2018-10-18T08:12:15.169Z,7.600
2018-10-18T08:15:15.725Z,9.387
2018-10-18T08:18:15.411Z,11.500
2018-10-18T08:21:15.921Z,7.250
2018-10-18T08:24:15.252Z,12.100
2018-10-18T08:27:15.890Z,14.025
2018-10-18T08:30:15.470Z,8.600
2018-10-18T08:33:15.796Z,11.925
2018-10-18T08:36:15.302Z,14.887
2018-10-18T08:39:15.821Z,18.087
2018-10-18T08:42:15.409Z,11.475
2018-10-18T08:45:15.269Z,13.475
2018-10-18T08:48:16.065Z,11.450
2018-10-18T08:51:15.470Z,14.988
2018-10-18T08:54:15.858Z,9.550
2018-10-18T08:57:15.916Z,12.375
2018-10-18T09:00:15.439Z,8.075
2018-10-18T09:03:15.784Z,14.775
2018-10-18T09:06:15.544Z,10.775
2018-10-18T09:09:15.240Z,14.925
2018-10-18T09:12:16.031Z,11.425
2018-10-18T09:15:15.402Z,9.912
2018-10-18T09:18:15.921Z,8.862
2018-10-18T09:21:15.213Z,8.713
2018-10-18T09:24:15.581Z,9.262
2018-10-18T09:27:15.901Z,14.725
2018-10-18T09:30:15.665Z,6.325
2018-10-18T09:33:15.363Z,13.037
2018-10-18T09:36:16.014Z,12.950
2018-10-18T09:39:15.325Z,11.700
2018-10-18T09:42:15.955Z,17.237
2018-10-18T09:45:15.596Z,13.075
2018-10-18T09:48:15.295Z,9.938
2018-10-18T09:51:15.590Z,7.912
2018-10-18T09:54:15.146Z,16.350
2018-10-18T09:57:15.918Z,16.800
2018-10-18T10:00:15.442Z,14.713
2018-10-18T10:03:15.938Z,17.712
2018-10-18T10:06:15.624Z,16.413
2018-10-18T10:09:15.421Z,20.012
2018-10-18T10:12:16.056Z,18.800
2018-10-18T10:15:15.825Z,23.200
2018-10-18T10:18:15.864Z,15.600
2018-10-18T10:21:15.244Z,8.400
2018-10-18T10:24:15.806Z,19.350
2018-10-18T10:27:15.656Z,20.475
2018-10-18T10:30:15.596Z,11.213
2018-10-18T10:33:15.418Z,11.188
2018-10-18T10:36:15.255Z,19.725
2018-10-18T10:39:15.473Z,14.662
2018-10-18T10:42:15.303Z,8.225
2018-10-18T10:45:15.963Z,22.250
2018-10-18T10:48:15.962Z,12.775
2018-10-18T10:51:16.040Z,17.375
2018-10-18T10:54:15.754Z,18.475
2018-10-18T10:57:15.556Z,14.125
2018-10-18T11:00:15.387Z,9.288
2018-10-18T11:03:16.066Z,22.750
2018-10-18T11:06:16.029Z,17.650
2018-10-18T11:09:15.383Z,17.312
2018-10-18T11:12:16.011Z,20.212
2018-10-18T11:15:15.353Z,16.775
2018-10-18T11:18:15.764Z,13.100
2018-10-18T11:21:15.908Z,18.062
2018-10-18T11:24:15.337Z,10.438
2018-10-18T11:27:15.511Z,13.525
2018-10-18T11:30:15.608Z,20.262
2018-10-18T11:33:15.572Z,14.912
2018-10-18T11:36:15.474Z,12.338
2018-10-18T11:39:15.690Z,19.012
2018-10-18T11:42:15.791Z,11.175
2018-10-18T11:45:15.795Z,15.825
2018-10-18T11:48:15.417Z,12.113
2018-10-18T11:51:15.114Z,12.487
2018-10-18T11:54:15.253Z,17.938
2018-10-18T11:57:15.755Z,19.100
2018-10-18T12:00:15.207Z,11.588
2018-10-18T12:03:15.706Z,10.438
2018-10-18T12:06:15.260Z,8.300
2018-10-18T12:09:15.691Z,7.425
2018-10-18T12:12:15.435Z,8.188
2018-10-18T12:15:15.965Z,14.487
2018-10-18T12:18:15.710Z,12.350
2018-10-18T12:21:15.059Z,6.838
2018-10-18T12:24:15.621Z,18.037
2018-10-18T12:27:15.324Z,13.150
2018-10-18T12:30:16.103Z,6.150
2018-10-18T12:33:15.629Z,9.812
2018-10-18T12:36:15.030Z,6.375
2018-10-18T12:39:15.535Z,13.737
2018-10-18T12:42:15.591Z,15.050
2018-10-18T12:45:15.077Z,7.750
2018-10-18T12:48:15.912Z,5.975
2018-10-18T12:51:15.889Z,9.150
2018-10-18T12:54:15.586Z,11.025
2018-10-18T12:57:15.501Z,9.300
2018-10-18T13:00:15.198Z,10.200
2018-10-18T13:03:15.953Z,7.287
2018-10-18T13:06:15.651Z,6.938
2018-10-18T13:09:15.269Z,8.900
2018-10-18T13:12:15.651Z,12.337
2018-10-18T13:15:15.146Z,9.425
2018-10-18T13:18:15.691Z,16.325
2018-10-18T13:21:15.200Z,13.550
2018-10-18T13:24:15.219Z,14.737
2018-10-18T13:27:16.038Z,9.538
2018-10-18T13:30:15.632Z,8.963
2018-10-18T13:33:15.333Z,10.637
2018-10-18T13:36:16.088Z,11.288
2018-10-18T13:39:15.892Z,16.363
2018-10-18T13:42:15.534Z,11.700
2018-10-18T13:45:15.099Z,9.225
2018-10-18T13:48:15.831Z,13.312
2018-10-18T13:51:15.388Z,10.800
2018-10-18T13:54:16.072Z,10.950
2018-10-18T13:57:15.919Z,15.938
2018-10-18T14:00:15.658Z,9.562
2018-10-18T14:03:15.752Z,15.550
2018-10-18T14:06:15.337Z,15.812
2018-10-18T14:09:15.974Z,8.725
2018-10-18T14:12:15.478Z,15.525
2018-10-18T14:15:15.999Z,9.250
2018-10-18T14:18:15.828Z,12.900
2018-10-18T14:21:15.365Z,13.162
2018-10-18T14:24:15.861Z,13.512
2018-10-18T14:27:15.354Z,14.037
2018-10-18T14:30:15.846Z,15.262
2018-10-18T14:33:16.033Z,12.775
2018-10-18T14:36:15.513Z,15.112
2018-10-18T14:39:15.184Z,12.475
2018-10-18T14:42:15.846Z,11.250
2018-10-18T14:45:15.603Z,14.613
2018-10-18T14:48:15.100Z,13.663
2018-10-18T14:51:15.786Z,16.488
2018-10-18T14:54:15.275Z,16.975
2018-10-18T14:57:15.903Z,12.750
2018-10-18T15:00:15.322Z,10.950
2018-10-18T15:03:15.989Z,10.600
2018-10-18T15:06:15.451Z,15.775
2018-10-18T15:09:15.823Z,17.800
2018-10-18T15:12:15.247Z,13.988
2018-10-18T15:15:15.707Z,12.600
2018-10-18T15:18:15.415Z,12.225
2018-10-18T15:21:15.863Z,12.250
2018-10-18T15:24:15.214Z,12.762
2018-10-18T15:27:15.801Z,5.950
2018-10-18T15:30:15.560Z,13.463
2018-10-18T15:33:15.158Z,10.838
2018-10-18T15:36:15.708Z,10.825
2018-10-18T15:39:15.747Z,9.675
2018-10-18T15:42:16.072Z,9.138
2018-10-18T15:45:15.976Z,10.350
2018-10-18T15:48:15.701Z,7.538
2018-10-18T15:51:15.540Z,12.875
2018-10-18T15:54:15.414Z,6.175
2018-10-18T15:57:15.189Z,10.137
2018-10-18T16:00:15.995Z,10.812
2018-10-18T16:03:15.498Z,11.200
2018-10-18T16:06:15.337Z,9.812
2018-10-18T16:09:15.080Z,6.975
2018-10-18T16:12:15.823Z,9.850
2018-10-18T16:15:15.305Z,5.575
2018-10-18T16:18:15.907Z,8.162
2018-10-18T16:21:15.488Z,6.162
2018-10-18T16:24:15.991Z,10.262
2018-10-18T16:27:15.480Z,8.762
2018-10-18T16:30:15.278Z,6.162
2018-10-18T16:33:15.406Z,6.237
2018-10-18T16:36:15.110Z,8.175
2018-10-18T16:39:15.966Z,11.900
2018-10-18T16:42:15.637Z,8.863
2018-10-18T16:45:15.191Z,9.800
2018-10-18T16:48:16.014Z,6.763
2018-10-18T16:51:15.550Z,6.400
2018-10-18T16:54:15.309Z,12.100
2018-10-18T16:57:15.302Z,8.988
2018-10-18T17:00:16.503Z,7.500
2018-10-18T17:03:15.144Z,10.250
2018-10-18T17:06:15.687Z,8.950
2018-10-18T17:09:15.869Z,6.950
2018-10-18T17:12:15.691Z,6.350
2018-10-18T17:15:15.271Z,10.175
2018-10-18T17:18:15.803Z,10.800
2018-10-18T17:21:15.473Z,12.738
2018-10-18T17:24:15.240Z,9.012
2018-10-18T17:27:16.009Z,8.175
2018-10-18T17:30:15.833Z,11.025
2018-10-18T17:33:15.816Z,11.175
2018-10-18T17:36:15.495Z,9.463
2018-10-18T17:39:15.244Z,8.662
2018-10-18T17:42:15.759Z,10.213
2018-10-18T17:45:15.405Z,9.738
2018-10-18T17:48:15.234Z,10.012
2018-10-18T17:51:15.735Z,6.950
2018-10-18T17:54:15.499Z,8.250
2018-10-18T17:57:15.219Z,9.613
2018-10-18T18:00:15.998Z,8.188
2018-10-18T18:03:15.421Z,5.987
2018-10-18T18:06:15.484Z,7.425
2018-10-18T18:09:15.496Z,7.888
2018-10-18T18:12:15.144Z,6.675
2018-10-18T18:15:16.082Z,7.438
2018-10-18T18:18:15.769Z,7.625
2018-10-18T18:21:15.485Z,10.062
2018-10-18T18:24:15.040Z,7.287
2018-10-18T18:27:15.982Z,7.175
2018-10-18T18:30:15.225Z,7.825
2018-10-18T18:33:15.934Z,9.188
2018-10-18T18:36:15.603Z,7.613
2018-10-18T18:39:15.324Z,7.712
2018-10-18T18:42:15.402Z,8.025
2018-10-18T18:45:15.297Z,9.188
2018-10-18T18:48:15.305Z,5.825
2018-10-18T18:51:15.787Z,7.600
2018-10-18T18:54:15.979Z,10.663
2018-10-18T18:57:15.663Z,7.362
2018-10-18T19:03:28.614Z,8.812
2018-10-18T19:09:24.124Z,8.775
2018-10-18T19:12:15.575Z,7.625
2018-10-18T19:15:15.238Z,6.800
2018-10-18T19:18:15.597Z,5.750
2018-10-18T19:21:15.625Z,8.488
2018-10-18T19:24:15.699Z,6.075
2018-10-18T19:27:15.313Z,8.113
2018-10-18T19:30:15.826Z,6.375
2018-10-18T19:33:15.447Z,6.625
2018-10-18T19:36:15.148Z,7.925
2018-10-18T19:39:16.231Z,11.837
2018-10-18T19:42:15.290Z,8.488
2018-10-18T19:45:15.087Z,9.125
2018-10-18T19:48:15.447Z,14.950
2018-10-18T19:51:16.026Z,6.525
2018-10-18T19:54:15.754Z,7.350
2018-10-18T19:57:15.836Z,10.637
2018-10-18T20:00:15.611Z,7.688
2018-10-18T20:03:15.166Z,9.887
2018-10-18T20:06:15.794Z,7.950
2018-10-18T20:09:16.200Z,11.312
2018-10-18T20:12:15.643Z,6.988
2018-10-18T20:15:15.910Z,10.463
2018-10-18T20:18:16.110Z,6.812
2018-10-18T20:21:15.640Z,9.637
2018-10-18T20:24:15.370Z,9.500
2018-10-18T20:27:15.645Z,6.600
2018-10-18T20:30:15.245Z,5.787
2018-10-18T20:33:16.082Z,4.862
2018-10-18T20:36:15.943Z,10.213
2018-10-18T20:39:15.599Z,8.562
2018-10-18T20:42:15.270Z,4.963
2018-10-18T20:45:15.743Z,4.350
2018-10-18T20:48:15.181Z,5.650
2018-10-18T20:51:16.086Z,8.288
2018-10-18T20:54:15.864Z,5.887
2018-10-18T20:57:15.659Z,6.825
2018-10-18T21:00:15.488Z,7.150
2018-10-18T21:03:15.420Z,9.887
2018-10-18T21:06:16.013Z,8.400
2018-10-18T21:09:16.231Z,10.088
2018-10-18T21:12:15.930Z,9.512
2018-10-18T21:15:15.664Z,7.238
2018-10-18T21:18:15.445Z,9.312
2018-10-18T21:21:15.920Z,7.550
2018-10-18T21:24:15.527Z,8.725
2018-10-18T21:27:15.207Z,7.213
2018-10-18T21:30:15.599Z,6.625
2018-10-18T21:33:15.311Z,12.050
2018-10-18T21:36:15.012Z,12.162
2018-10-18T21:39:15.724Z,6.863
2018-10-18T21:42:15.062Z,5.175
2018-10-18T21:45:16.006Z,5.838
2018-10-18T21:48:15.683Z,4.200
2018-10-18T21:51:15.527Z,3.425
2018-10-18T21:54:15.263Z,4.950
2018-10-18T21:57:15.635Z,3.600
2018-10-18T22:00:15.073Z,3.412
2018-10-18T22:03:16.120Z,3.688
2018-10-18T22:06:15.604Z,2.388
2018-10-18T22:09:15.110Z,2.675
2018-10-18T22:12:15.698Z,3.700
2018-10-18T22:15:15.191Z,2.075
2018-10-18T22:18:15.364Z,1.575
2018-10-18T22:21:21.844Z,3.712
2018-10-18T22:24:14.996Z,3.288
2018-10-18T22:27:16.098Z,3.087
2018-10-18T22:30:15.039Z,2.950
2018-10-18T22:33:15.135Z,4.975
2018-10-18T22:36:15.248Z,1.688
2018-10-18T22:39:15.199Z,2.025
2018-10-18T22:42:15.987Z,1.513
2018-10-18T22:45:15.566Z,0.850
2018-10-18T22:48:15.434Z,0.900
2018-10-18T22:51:15.171Z,1.275
2018-10-18T22:54:15.226Z,1.087
2018-10-18T22:57:15.114Z,0.637
2018-10-18T23:00:15.172Z,2.725
2018-10-18T23:03:15.124Z,1.400
2018-10-18T23:06:15.608Z,3.550
2018-10-18T23:09:16.326Z,2.438
2018-10-18T23:12:16.499Z,2.312
2018-10-18T23:15:15.949Z,1.250
2018-10-18T23:18:16.959Z,2.375
2018-10-18T23:21:16.361Z,1.125
2018-10-18T23:24:16.144Z,1.762
2018-10-18T23:27:16.303Z,2.700
2018-10-18T23:30:20.583Z,0.525
2018-10-18T23:33:20.887Z,1.175
2018-10-18T23:36:16.245Z,1.500
2018-10-18T23:39:15.977Z,0.825
2018-10-18T23:42:15.568Z,1.062
2018-10-18T23:45:16.664Z,1.825
2018-10-18T23:48:15.827Z,2.450
2018-10-18T23:51:17.133Z,2.688
2018-10-18T23:54:16.479Z,2.375
2018-10-18T23:57:16.180Z,2.100
